createdAt,value
2022-08-09T00:00:06.326Z,48.67
2022-08-09T00:04:03.692Z,48.51
2022-08-09T00:06:34.042Z,48.71
2022-08-09T00:09:39.957Z,48.72
2022-08-09T00:12:42.724Z,49.01
2022-08-09T00:15:58.630Z,49.01
2022-08-09T00:19:02.634Z,49.31
2022-08-09T00:22:12.081Z,49.01
2022-08-09T00:25:23.386Z,49.22
2022-08-09T00:28:40.769Z,49.14
2022-08-09T00:31:59.060Z,49.52
2022-08-09T00:35:03.406Z,49.34
2022-08-09T00:38:06.169Z,49.33
2022-08-09T00:41:11.421Z,49.76
2022-08-09T00:44:34.758Z,49.61
2022-08-09T00:47:40.388Z,49.91
2022-08-09T00:50:44.306Z,50.06
2022-08-09T00:53:54.959Z,49.77
2022-08-09T00:57:00.324Z,50.00
2022-08-09T01:00:22.068Z,50.25
2022-08-09T01:03:32.825Z,50.23
2022-08-09T01:06:54.448Z,50.27
2022-08-09T01:10:04.845Z,50.64
2022-08-09T01:13:19.030Z,50.55
2022-08-09T01:16:30.961Z,50.67
2022-08-09T01:19:57.264Z,50.68
2022-08-09T01:24:01.902Z,50.85
2022-08-09T01:26:53.724Z,51.23
2022-08-09T01:30:00.990Z,51.28
2022-08-09T01:33:07.223Z,51.72
2022-08-09T01:36:15.816Z,51.91
2022-08-09T01:39:23.285Z,51.87
2022-08-09T01:42:29.785Z,51.79
2022-08-09T01:45:33.678Z,52.05
2022-08-09T01:48:40.966Z,51.80
2022-08-09T01:51:53.933Z,52.04
2022-08-09T01:54:59.392Z,51.95
2022-08-09T01:58:06.503Z,51.86
2022-08-09T02:01:11.499Z,51.98
2022-08-09T02:04:22.970Z,52.13
2022-08-09T02:08:41.402Z,52.13
2022-08-09T02:10:55.718Z,52.18
2022-08-09T02:14:06.979Z,52.26
2022-08-09T02:17:55.087Z,52.71
2022-08-09T02:20:41.291Z,52.62
2022-08-09T02:23:54.525Z,52.76
2022-08-09T02:27:03.047Z,53.09
2022-08-09T02:30:12.143Z,52.96
2022-08-09T02:33:19.027Z,53.04
2022-08-09T02:36:32.931Z,52.98
2022-08-09T02:39:41.783Z,53.40
2022-08-09T02:42:51.183Z,53.67
2022-08-09T02:45:56.470Z,53.98
2022-08-09T02:49:03.662Z,53.94
2022-08-09T02:52:09.121Z,53.94
2022-08-09T02:55:20.623Z,53.94
2022-08-09T02:58:36.475Z,54.11
2022-08-09T03:02:05.561Z,54.27
2022-08-09T03:05:09.103Z,54.49
2022-08-09T03:08:22.103Z,54.26
2022-08-09T03:12:04.158Z,54.28
2022-08-09T03:14:51.671Z,54.42
2022-08-09T03:22:41.441Z,54.82
2022-08-09T03:26:02.162Z,54.79
2022-08-09T03:29:09.672Z,54.85
2022-08-09T03:32:18.357Z,55.11
2022-08-09T03:35:44.050Z,54.97
2022-08-09T03:38:46.759Z,55.32
2022-08-09T03:41:49.887Z,55.59
2022-08-09T03:45:10.118Z,55.46
2022-08-09T03:48:19.020Z,55.35
2022-08-09T03:51:55.587Z,55.51
2022-08-09T03:54:58.545Z,55.71
2022-08-09T03:58:06.670Z,55.87
2022-08-09T04:01:18.029Z,55.80
2022-08-09T04:04:24.708Z,56.20
2022-08-09T04:07:47.743Z,56.07
2022-08-09T04:10:53.675Z,56.21
2022-08-09T04:14:52.994Z,56.26
2022-08-09T04:17:20.508Z,56.09
2022-08-09T04:20:24.103Z,56.18
2022-08-09T04:23:28.712Z,56.48
2022-08-09T04:26:35.306Z,56.85
2022-08-09T04:29:50.165Z,56.91
2022-08-09T04:32:54.972Z,56.91
2022-08-09T04:35:58.653Z,56.55
2022-08-09T04:39:03.236Z,56.91
2022-08-09T04:42:09.392Z,56.81
2022-08-09T04:45:13.649Z,56.66
2022-08-09T04:48:18.176Z,56.81
2022-08-09T04:51:21.300Z,56.50
2022-08-09T04:54:25.766Z,56.80
2022-08-09T04:57:58.987Z,56.88
2022-08-09T05:00:54.437Z,56.90
2022-08-09T05:03:58.701Z,56.64
2022-08-09T05:07:05.818Z,56.78
2022-08-09T05:10:09.591Z,56.75
2022-08-09T05:13:14.538Z,56.88
2022-08-09T05:16:17.350Z,56.85
2022-08-09T05:19:25.555Z,56.43
2022-08-09T05:22:34.980Z,56.33
2022-08-09T05:25:52.356Z,56.30
2022-08-09T05:28:57.267Z,56.07
2022-08-09T05:32:01.136Z,55.47
2022-08-09T05:35:04.419Z,55.35
2022-08-09T05:38:07.224Z,55.27
2022-08-09T05:41:12.789Z,54.87
2022-08-09T05:44:17.386Z,54.68
2022-08-09T05:47:27.076Z,54.75
2022-08-09T05:50:50.615Z,54.70
2022-08-09T05:53:57.657Z,54.34
2022-08-09T05:57:00.920Z,51.55
2022-08-09T06:00:07.698Z,48.01
2022-08-09T06:03:11.087Z,45.27
2022-08-09T06:06:23.341Z,43.17
2022-08-09T06:09:54.445Z,41.61
2022-08-09T06:12:57.763Z,40.62
2022-08-09T06:16:08.037Z,39.51
2022-08-09T06:19:10.835Z,38.94
2022-08-09T06:22:15.612Z,38.51
2022-08-09T06:25:18.656Z,38.09
2022-08-09T06:28:31.889Z,37.56
2022-08-09T06:31:40.405Z,37.05
2022-08-09T06:35:00.499Z,36.77
2022-08-09T06:38:05.507Z,37.00
2022-08-09T06:41:19.083Z,37.48
2022-08-09T06:44:22.493Z,37.84
2022-08-09T06:47:39.421Z,38.13
2022-08-09T06:50:44.811Z,38.09
2022-08-09T06:53:49.817Z,38.67
2022-08-09T06:56:52.717Z,38.83
2022-08-09T07:00:50.318Z,38.34
2022-08-09T07:03:20.021Z,37.97
2022-08-09T07:06:31.007Z,37.41
2022-08-09T07:09:57.215Z,37.38
2022-08-09T07:12:58.334Z,37.37
2022-08-09T07:16:41.317Z,37.08
2022-08-09T07:19:25.630Z,36.73
2022-08-09T07:22:43.781Z,36.53
2022-08-09T07:26:02.179Z,36.09
2022-08-09T07:29:12.253Z,36.14
2022-08-09T07:32:16.638Z,36.13
2022-08-09T07:35:21.142Z,35.79
2022-08-09T07:38:25.431Z,35.46
2022-08-09T07:41:38.646Z,34.85
2022-08-09T07:44:52.494Z,34.41
2022-08-09T07:48:01.652Z,33.95
2022-08-09T07:52:04.588Z,33.21
2022-08-09T07:54:32.748Z,33.02
2022-08-09T07:57:35.973Z,33.00
2022-08-09T08:00:49.290Z,33.55
2022-08-09T08:03:58.955Z,32.96
2022-08-09T08:07:15.488Z,33.29
2022-08-09T08:10:27.920Z,33.90
2022-08-09T08:13:38.202Z,33.83
2022-08-09T08:17:07.593Z,34.33
2022-08-09T08:20:12.905Z,34.78
2022-08-09T08:23:18.713Z,34.93
2022-08-09T08:26:42.160Z,35.76
2022-08-09T08:29:48.549Z,36.28
2022-08-09T08:32:54.094Z,36.64
2022-08-09T08:36:00.458Z,36.68
2022-08-09T08:39:14.135Z,36.59
2022-08-09T08:42:32.141Z,36.83
2022-08-09T08:45:50.782Z,36.87
2022-08-09T08:48:57.820Z,36.76
2022-08-09T08:52:04.255Z,36.73
2022-08-09T08:55:19.102Z,36.77
2022-08-09T08:58:29.567Z,36.75
2022-08-09T09:01:45.063Z,36.62
2022-08-09T09:04:57.526Z,36.53
2022-08-09T09:08:07.444Z,36.54
2022-08-09T09:11:33.798Z,36.42
2022-08-09T09:14:41.268Z,36.29
2022-08-09T09:17:49.538Z,36.18
2022-08-09T09:20:56.009Z,36.01
2022-08-09T09:24:10.255Z,34.54
2022-08-09T09:28:04.396Z,34.99
2022-08-09T09:30:55.711Z,35.02
2022-08-09T09:34:14.451Z,34.69
2022-08-09T09:37:31.631Z,33.77
2022-08-09T09:40:46.160Z,34.03
2022-08-09T09:44:11.437Z,34.14
2022-08-09T09:47:21.414Z,33.92
2022-08-09T09:50:49.643Z,32.96
2022-08-09T09:54:17.854Z,33.27
2022-08-09T09:58:02.377Z,33.23
2022-08-09T10:00:55.931Z,33.11
2022-08-09T10:04:04.357Z,32.77
2022-08-09T10:07:24.230Z,30.33
2022-08-09T10:10:31.520Z,31.51
2022-08-09T10:13:43.358Z,31.46
2022-08-09T10:16:56.852Z,30.60
2022-08-09T10:20:06.018Z,30.06
2022-08-09T10:23:21.948Z,29.46
2022-08-09T10:26:26.742Z,29.54
2022-08-09T10:30:28.308Z,29.02
2022-08-09T10:32:56.139Z,29.30
2022-08-09T10:36:00.984Z,29.54
2022-08-09T10:39:15.575Z,28.56
2022-08-09T10:42:26.804Z,27.35
2022-08-09T10:45:35.682Z,27.56
2022-08-09T10:48:59.846Z,26.91
2022-08-09T10:52:13.572Z,27.60
2022-08-09T10:55:25.960Z,27.65
2022-08-09T10:58:33.439Z,27.62
2022-08-09T11:03:14.335Z,27.50
2022-08-09T11:05:25.116Z,27.75
2022-08-09T11:08:47.596Z,27.53
2022-08-09T11:12:11.675Z,27.59
2022-08-09T11:15:33.946Z,27.53
2022-08-09T11:18:45.848Z,27.45
2022-08-09T11:22:10.586Z,27.09
2022-08-09T11:25:25.919Z,27.24
2022-08-09T11:28:54.033Z,28.09
2022-08-09T11:32:08.071Z,27.90
2022-08-09T11:35:16.889Z,27.80
2022-08-09T11:38:32.017Z,27.18
2022-08-09T11:41:37.866Z,26.95
2022-08-09T11:44:55.405Z,26.45
2022-08-09T11:48:06.501Z,26.79
2022-08-09T11:52:48.797Z,26.35
2022-08-09T11:54:39.908Z,26.32
2022-08-09T11:57:59.743Z,26.12
2022-08-09T12:01:08.700Z,24.82
2022-08-09T12:04:23.917Z,24.63
2022-08-09T12:07:41.503Z,25.06
2022-08-09T12:10:48.701Z,24.79
2022-08-09T12:14:07.397Z,24.77
2022-08-09T12:17:33.774Z,24.30
2022-08-09T12:20:43.699Z,24.32
2022-08-09T12:24:09.107Z,24.43
2022-08-09T12:29:10.224Z,24.08
2022-08-09T12:30:44.368Z,24.65
2022-08-09T12:33:58.492Z,24.18
2022-08-09T12:37:21.549Z,23.60
2022-08-09T12:40:28.467Z,23.81
2022-08-09T12:44:04.853Z,24.12
2022-08-09T12:46:58.583Z,23.64
2022-08-09T12:50:25.173Z,23.57
2022-08-09T12:53:37.610Z,23.00
2022-08-09T12:56:50.977Z,23.47
2022-08-09T13:00:12.435Z,23.07
2022-08-09T13:03:24.541Z,22.89
2022-08-09T13:06:42.727Z,23.12
2022-08-09T13:09:55.433Z,23.29
2022-08-09T13:13:10.924Z,23.64
2022-08-09T13:16:17.613Z,23.99
2022-08-09T13:20:06.808Z,23.43
2022-08-09T13:23:05.481Z,22.60
2022-08-09T13:26:13.331Z,23.12
2022-08-09T13:29:18.751Z,22.86
2022-08-09T13:32:26.379Z,22.74
2022-08-09T13:35:34.472Z,22.57
2022-08-09T13:38:59.126Z,22.97
2022-08-09T13:42:11.977Z,22.59
2022-08-09T13:45:15.829Z,22.93
2022-08-09T13:48:21.648Z,23.44
2022-08-09T13:51:27.592Z,23.34
2022-08-09T13:54:30.493Z,23.20
2022-08-09T13:57:39.307Z,23.16
2022-08-09T14:00:48.223Z,23.56
2022-08-09T14:04:01.313Z,23.66
2022-08-09T14:07:06.793Z,23.10
2022-08-09T14:10:17.557Z,22.98
2022-08-09T14:14:15.175Z,22.98
2022-08-09T14:16:59.708Z,22.59
2022-08-09T14:20:07.561Z,22.54
2022-08-09T14:23:10.329Z,22.46
2022-08-09T14:26:25.412Z,22.13
2022-08-09T14:30:35.034Z,22.41
2022-08-09T14:32:57.857Z,22.68
2022-08-09T14:36:17.625Z,22.59
2022-08-09T14:39:40.082Z,22.08
2022-08-09T14:42:47.013Z,21.87
2022-08-09T14:46:51.367Z,22.72
2022-08-09T14:49:13.959Z,22.67
2022-08-09T14:52:20.627Z,22.44
2022-08-09T14:55:31.938Z,23.22
2022-08-09T14:58:37.886Z,22.66
2022-08-09T15:01:47.033Z,22.43
2022-08-09T15:04:50.572Z,22.34
2022-08-09T15:07:56.817Z,21.76
2022-08-09T15:11:05.022Z,21.74
2022-08-09T15:14:13.457Z,22.13
2022-08-09T15:17:16.984Z,22.27
2022-08-09T15:21:55.524Z,21.98
2022-08-09T15:24:01.946Z,22.63
2022-08-09T15:27:07.747Z,21.98
2022-08-09T15:30:48.279Z,22.13
2022-08-09T15:34:31.718Z,22.20
2022-08-09T15:37:37.248Z,21.78
2022-08-09T15:40:48.930Z,22.05
2022-08-09T15:43:51.675Z,22.16
2022-08-09T15:46:57.929Z,22.12
2022-08-09T15:50:04.671Z,22.34
2022-08-09T15:53:32.713Z,21.97
2022-08-09T15:56:32.406Z,21.94
2022-08-09T15:59:36.783Z,21.99
2022-08-09T16:02:40.893Z,21.94
2022-08-09T16:05:53.267Z,22.20
2022-08-09T16:09:01.283Z,22.05
2022-08-09T16:12:11.577Z,22.00
2022-08-09T16:16:11.469Z,22.38
2022-08-09T16:18:37.626Z,22.36
2022-08-09T16:21:51.982Z,22.09
2022-08-09T16:24:59.523Z,21.92
2022-08-09T16:28:05.842Z,22.32
2022-08-09T16:31:15.983Z,21.81
2022-08-09T16:34:19.079Z,21.92
2022-08-09T16:37:55.380Z,22.11
2022-08-09T16:40:49.457Z,22.16
2022-08-09T16:43:55.668Z,22.30
2022-08-09T16:47:03.882Z,22.81
2022-08-09T16:50:31.462Z,22.75
2022-08-09T16:53:36.777Z,23.00
2022-08-09T16:56:42.694Z,22.93
2022-08-09T16:59:57.500Z,22.87
2022-08-09T17:03:00.709Z,22.89
2022-08-09T17:06:28.866Z,22.77
2022-08-09T17:09:44.879Z,23.50
2022-08-09T17:12:49.593Z,24.04
2022-08-09T17:15:59.760Z,23.97
2022-08-09T17:19:03.375Z,24.55
2022-08-09T17:22:08.086Z,24.34
2022-08-09T17:25:13.447Z,24.07
2022-08-09T17:28:16.690Z,23.79
2022-08-09T17:31:24.029Z,23.83
2022-08-09T17:35:00.578Z,23.85
2022-08-09T17:38:11.244Z,24.33
2022-08-09T17:41:18.497Z,23.88
2022-08-09T17:44:38.879Z,23.68
2022-08-09T17:47:49.667Z,23.50
2022-08-09T17:50:59.522Z,23.95
2022-08-09T17:54:12.639Z,24.11
2022-08-09T17:58:02.230Z,24.42
2022-08-09T18:00:46.570Z,24.75
2022-08-09T18:03:54.505Z,24.94
2022-08-09T18:06:57.596Z,25.07
2022-08-09T18:10:04.696Z,25.18
2022-08-09T18:13:43.271Z,25.57
2022-08-09T18:16:32.137Z,25.12
2022-08-09T18:20:59.748Z,25.21
2022-08-09T18:22:59.798Z,25.22
2022-08-09T18:26:08.119Z,25.33
2022-08-09T18:30:35.655Z,26.04
2022-08-09T18:32:36.708Z,26.86
2022-08-09T18:35:58.599Z,27.07
2022-08-09T18:39:03.310Z,27.49
2022-08-09T18:42:08.993Z,28.03
2022-08-09T18:45:21.782Z,28.10
2022-08-09T18:48:35.051Z,28.77
2022-08-09T18:51:55.318Z,29.19
2022-08-09T18:55:00.635Z,29.71
2022-08-09T18:58:03.458Z,30.15
2022-08-09T19:01:06.691Z,30.53
2022-08-09T19:04:10.933Z,31.07
2022-08-09T19:07:16.291Z,31.65
2022-08-09T19:10:19.514Z,32.60
2022-08-09T19:13:38.538Z,33.83
2022-08-09T19:16:50.091Z,34.33
2022-08-09T19:19:58.897Z,34.61
2022-08-09T19:23:06.507Z,34.79
2022-08-09T19:26:09.882Z,34.94
2022-08-09T19:29:18.216Z,35.63
2022-08-09T19:32:29.531Z,36.34
2022-08-09T19:35:57.476Z,36.53
2022-08-09T19:38:58.673Z,37.53
2022-08-09T19:42:06.838Z,37.87
2022-08-09T19:45:11.326Z,38.12
2022-08-09T19:48:14.048Z,38.33
2022-08-09T19:51:16.836Z,38.50
2022-08-09T19:54:22.202Z,38.78
2022-08-09T19:57:28.879Z,39.20
2022-08-09T20:00:31.907Z,39.36
2022-08-09T20:04:18.428Z,39.60
2022-08-09T20:06:58.136Z,40.22
2022-08-09T20:10:06.536Z,40.75
2022-08-09T20:13:10.406Z,40.75
2022-08-09T20:16:37.228Z,41.06
2022-08-09T20:19:47.595Z,41.45
2022-08-09T20:22:56.718Z,41.93
2022-08-09T20:26:00.825Z,42.25
2022-08-09T20:29:18.697Z,41.99
2022-08-09T20:32:33.513Z,41.33
2022-08-09T20:35:36.816Z,40.86
2022-08-09T20:39:18.721Z,40.41
2022-08-09T20:42:04.472Z,40.13
2022-08-09T20:45:59.070Z,40.01
2022-08-09T20:48:32.111Z,39.80
2022-08-09T20:51:41.188Z,39.84
2022-08-09T20:54:52.783Z,39.72
2022-08-09T20:58:08.513Z,39.57
2022-08-09T21:01:34.012Z,39.72
2022-08-09T21:05:57.316Z,39.77
2022-08-09T21:08:09.185Z,39.83
2022-08-09T21:14:40.638Z,40.10
2022-08-09T21:18:21.069Z,40.21
2022-08-09T21:21:17.677Z,40.45
2022-08-09T21:24:28.623Z,40.26
2022-08-09T21:27:50.982Z,40.37
2022-08-09T21:30:56.431Z,40.34
2022-08-09T21:34:00.836Z,40.66
2022-08-09T21:37:18.499Z,40.80
2022-08-09T21:40:30.295Z,40.89
2022-08-09T21:43:56.013Z,40.98
2022-08-09T21:46:58.854Z,41.07
2022-08-09T21:50:02.212Z,41.29
2022-08-09T21:53:07.032Z,41.21
2022-08-09T21:56:28.390Z,41.23
2022-08-09T21:59:46.116Z,41.38
2022-08-09T22:02:58.934Z,41.67
2022-08-09T22:06:03.357Z,41.96
2022-08-09T22:09:11.081Z,42.01
2022-08-09T22:12:18.672Z,42.17
2022-08-09T22:15:34.741Z,42.40
2022-08-09T22:18:53.452Z,42.31
2022-08-09T22:21:57.551Z,42.52
2022-08-09T22:26:07.259Z,42.73
2022-08-09T22:28:32.471Z,42.82
2022-08-09T22:31:37.236Z,43.08
2022-08-09T22:34:41.946Z,43.27
2022-08-09T22:37:44.979Z,43.33
2022-08-09T22:40:49.049Z,43.66
2022-08-09T22:44:03.107Z,43.65
2022-08-09T22:48:15.100Z,44.01
2022-08-09T22:50:33.481Z,43.74
2022-08-09T22:53:58.131Z,44.00
2022-08-09T22:56:59.172Z,44.08
2022-08-09T23:00:02.330Z,44.53
2022-08-09T23:03:12.830Z,44.21
2022-08-09T23:06:35.025Z,44.45
2022-08-09T23:09:38.099Z,44.69
2022-08-09T23:12:41.574Z,44.65
2022-08-09T23:15:44.291Z,44.53
2022-08-09T23:19:06.118Z,44.90
2022-08-09T23:22:10.559Z,44.97
2022-08-09T23:25:13.780Z,44.98
2022-08-09T23:28:17.978Z,44.96
2022-08-09T23:31:20.692Z,45.34
2022-08-09T23:34:23.536Z,45.60
2022-08-09T23:37:27.638Z,45.84
2022-08-09T23:40:30.903Z,45.64
2022-08-09T23:43:33.739Z,45.81
2022-08-09T23:46:36.589Z,45.91
2022-08-09T23:49:39.533Z,45.84
2022-08-09T23:52:43.650Z,46.07
2022-08-09T23:55:49.718Z,46.04
2022-08-09T23:58:57.595Z,46.17
